Time;durP1;ratioP1;P1;durP2;ratioP2;P2;SDS_P1;SDS_P2;PMS_P1;PMS_P2;Temp;Humidity;BMP_temperature;BMP_pressure;BME280_temperature;BME280_humidity;BME280_pressure;Samples;Min_cycle;Max_cycle;Signal;HPM_P1;HPM_P2
2022/04/28 00:01:06;;;;;;;14.50;2.28;;;8.20;89.80;;;;;;5003919;28;20060;-69
2022/04/28 00:03:31;;;;;;;10.43;2.00;;;8.20;90.30;;;;;;5006239;28;20053;-70
2022/04/28 00:05:57;;;;;;;10.23;1.95;;;8.20;91.50;;;;;;4989245;28;20085;-70
2022/04/28 00:08:24;;;;;;;12.30;2.03;;;8.10;89.00;;;;;;5005894;28;20045;-70
2022/04/28 00:10:50;;;;;;;14.35;2.45;;;8.10;91.10;;;;;;4989319;28;20046;-70
2022/04/28 00:13:17;;;;;;;8.85;2.10;;;8.00;87.60;;;;;;5005793;28;20605;-70
2022/04/28 00:15:43;;;;;;;10.02;2.42;;;8.00;89.00;;;;;;5005876;28;20050;-70
2022/04/28 00:18:08;;;;;;;11.57;2.20;;;8.00;91.40;;;;;;5005370;28;20136;-70
2022/04/28 00:20:34;;;;;;;14.55;2.70;;;8.00;91.50;;;;;;5006690;28;20137;-70
2022/04/28 00:23:00;;;;;;;12.18;2.08;;;8.00;91.20;;;;;;5005156;28;20056;-70
2022/04/28 00:25:26;;;;;;;15.32;2.20;;;8.00;91.20;;;;;;5005625;28;20042;-70
2022/04/28 00:27:54;;;;;;;11.38;2.13;;;8.00;92.80;;;;;;5005290;28;20042;-70
2022/04/28 00:30:20;;;;;;;11.77;2.65;;;8.00;92.40;;;;;;4989467;28;20085;-70
2022/04/28 00:32:46;;;;;;;4.90;2.10;;;8.00;92.00;;;;;;5005473;28;20062;-70
2022/04/28 00:35:12;;;;;;;14.32;2.53;;;8.00;92.30;;;;;;5004871;28;20433;-70
2022/04/28 00:37:38;;;;;;;12.68;2.20;;;8.00;92.90;;;;;;4989623;28;20112;-70
2022/04/28 00:40:04;;;;;;;13.82;2.13;;;8.00;92.60;;;;;;5004801;28;20038;-70
2022/04/28 00:42:30;;;;;;;6.05;1.83;;;8.00;93.10;;;;;;4989508;28;20500;-70
2022/04/28 00:44:56;;;;;;;8.10;1.92;;;8.00;93.30;;;;;;5004900;28;20070;-70
2022/04/28 00:47:22;;;;;;;5.57;1.95;;;7.90;93.50;;;;;;4985825;28;20369;-70
2022/04/28 00:52:34;;;;;;;9.20;1.75;;;7.90;94.60;;;;;;4985696;28;20553;-70
2022/04/28 00:55:00;;;;;;;7.15;1.50;;;7.90;93.90;;;;;;4986178;28;20164;-70
2022/04/28 00:57:26;;;;;;;7.38;1.70;;;7.80;94.90;;;;;;5001678;28;20504;-70
2022/04/28 00:59:52;;;;;;;11.05;1.83;;;7.90;95.40;;;;;;5006023;28;20400;-70
2022/04/28 01:02:19;;;;;;;11.75;2.03;;;7.80;97.00;;;;;;4987552;28;20050;-70
2022/04/28 01:04:50;;;;;;;14.07;2.17;;;7.80;96.50;;;;;;5005882;28;20060;-70
2022/04/28 01:07:17;;;;;;;7.93;1.58;;;7.90;96.60;;;;;;5004756;28;20132;-70
2022/04/28 01:09:43;;;;;;;9.77;1.83;;;7.90;96.60;;;;;;5005043;28;20132;-70
2022/04/28 01:12:15;;;;;;;10.73;2.28;;;8.00;97.50;;;;;;5005110;28;20049;-70
2022/04/28 01:14:42;;;;;;;7.47;2.00;;;7.90;96.10;;;;;;4988542;28;20485;-70
2022/04/28 01:17:08;;;;;;;9.70;2.38;;;8.00;92.90;;;;;;5004839;28;20461;-71
2022/04/28 01:19:34;;;;;;;14.68;1.83;;;8.00;93.70;;;;;;4988212;28;20081;-71
2022/04/28 01:22:01;;;;;;;11.73;1.90;;;8.00;93.00;;;;;;5005285;28;20392;-71
2022/04/28 01:24:26;;;;;;;10.63;1.92;;;8.00;93.00;;;;;;5004328;28;20048;-70
2022/04/28 01:26:54;;;;;;;12.00;2.28;;;8.10;93.60;;;;;;4988435;28;20034;-70
2022/04/28 01:29:20;;;;;;;8.55;2.05;;;8.10;93.10;;;;;;5004648;28;20125;-70
2022/04/28 01:31:46;;;;;;;10.73;1.85;;;8.10;93.20;;;;;;5004711;28;20488;-70
2022/04/28 01:34:11;;;;;;;9.18;2.05;;;8.10;93.00;;;;;;5005166;28;20074;-70
2022/04/28 01:36:37;;;;;;;7.47;2.42;;;8.20;93.10;;;;;;5004330;28;20550;-70
2022/04/28 01:39:06;;;;;;;6.97;1.92;;;8.20;95.30;;;;;;4988631;28;20313;-70
2022/04/28 01:41:32;;;;;;;10.68;2.10;;;8.10;93.60;;;;;;5004189;28;20049;-70
2022/04/28 01:43:57;;;;;;;7.90;1.85;;;8.10;91.80;;;;;;4989053;28;20089;-70
2022/04/28 01:46:23;;;;;;;7.38;2.53;;;8.10;93.30;;;;;;5004822;28;20559;-70
2022/04/28 01:48:49;;;;;;;18.10;2.33;;;8.10;92.40;;;;;;4984207;28;20401;-70
2022/04/28 01:56:43;;;;;;;6.10;2.05;;;8.20;94.10;;;;;;4985534;28;20057;-69
2022/04/28 01:59:09;;;;;;;6.25;2.05;;;8.10;94.20;;;;;;4968975;28;20043;-70
2022/04/28 02:01:35;;;;;;;8.88;2.00;;;8.10;94.80;;;;;;4991763;28;20111;-70
2022/04/28 02:04:00;;;;;;;10.60;2.00;;;8.10;95.90;;;;;;4991627;28;20125;-70
2022/04/28 02:06:26;;;;;;;11.95;2.67;;;8.10;95.80;;;;;;5007592;28;20176;-70
2022/04/28 02:08:52;;;;;;;12.25;2.35;;;8.10;96.50;;;;;;5008541;28;20050;-70
2022/04/28 02:11:17;;;;;;;9.60;2.17;;;8.10;98.10;;;;;;5007441;28;20050;-70
2022/04/28 02:13:43;;;;;;;13.52;2.08;;;8.10;98.80;;;;;;5008649;28;20046;-69
2022/04/28 02:16:10;;;;;;;7.47;1.90;;;8.10;97.00;;;;;;4975555;28;20060;-70
2022/04/28 02:25:24;;;;;;;11.05;2.10;;;8.00;97.90;;;;;;5016223;23;20061;-70
2022/04/28 02:27:50;;;;;;;6.57;2.45;;;8.00;99.90;;;;;;5005298;28;20112;-70
2022/04/28 02:30:16;;;;;;;8.80;1.70;;;8.00;99.70;;;;;;4973351;28;20049;-70
2022/04/28 02:35:26;;;;;;;6.10;2.00;;;8.10;99.10;;;;;;4988939;28;20038;-70
2022/04/28 02:37:52;;;;;;;11.23;1.90;;;8.10;98.60;;;;;;4990836;28;20694;-70
2022/04/28 02:40:19;;;;;;;10.68;2.72;;;8.10;98.90;;;;;;4990531;28;20053;-70
2022/04/28 02:42:45;;;;;;;12.65;1.98;;;8.10;99.20;;;;;;5009551;28;20115;-70
2022/04/28 02:45:10;;;;;;;9.38;1.92;;;8.10;99.90;;;;;;4992611;28;20041;-70
2022/04/28 02:47:36;;;;;;;11.40;2.33;;;8.10;99.20;;;;;;5008434;28;20184;-70
2022/04/28 02:50:05;;;;;;;8.45;1.83;;;8.10;99.90;;;;;;4996225;28;20120;-70
2022/04/28 02:52:31;;;;;;;5.83;2.13;;;8.10;99.90;;;;;;4988513;28;20128;-70
2022/04/28 02:55:00;;;;;;;11.32;1.92;;;8.10;99.90;;;;;;4991316;28;20050;-70
2022/04/28 02:57:26;;;;;;;7.82;2.60;;;8.10;99.90;;;;;;4988622;28;20123;-71
2022/04/28 02:59:52;;;;;;;8.23;2.55;;;8.10;99.90;;;;;;4974430;28;20050;-70
2022/04/28 03:02:17;;;;;;;9.30;2.35;;;8.00;99.90;;;;;;4988874;28;20192;-70
2022/04/28 03:04:43;;;;;;;10.85;2.15;;;8.00;99.90;;;;;;4973269;28;20042;-70
2022/04/28 03:12:37;;;;;;;13.82;3.08;;;7.90;99.90;;;;;;4989178;28;20042;-70
2022/04/28 03:15:05;;;;;;;9.50;2.75;;;7.90;99.90;;;;;;4971401;28;20096;-70
2022/04/28 03:17:31;;;;;;;10.40;2.47;;;7.90;99.90;;;;;;4989393;28;20153;-71
2022/04/28 03:19:56;;;;;;;9.82;2.63;;;8.00;99.90;;;;;;4990239;28;20133;-70
2022/04/28 03:22:22;;;;;;;10.65;3.50;;;8.00;99.90;;;;;;4987804;28;20117;-71
2022/04/28 03:24:48;;;;;;;8.48;2.53;;;8.00;99.90;;;;;;4972899;28;20054;-70
2022/04/28 03:27:13;;;;;;;15.63;3.25;;;8.00;99.90;;;;;;4955926;28;20085;-71
2022/04/28 03:29:40;;;;;;;10.05;2.83;;;8.00;99.90;;;;;;4988947;28;20085;-71
2022/04/28 03:32:08;;;;;;;11.98;3.17;;;8.20;99.90;;;;;;4989508;28;20042;-71
2022/04/28 03:34:34;;;;;;;13.55;2.53;;;8.20;99.90;;;;;;4988686;28;20390;-71
2022/04/28 03:37:00;;;;;;;19.73;3.22;;;8.30;99.90;;;;;;4956318;28;20053;-71
2022/04/28 03:39:25;;;;;;;12.23;2.78;;;8.20;99.90;;;;;;4988112;28;20141;-71
2022/04/28 03:41:51;;;;;;;19.10;3.40;;;8.10;99.90;;;;;;4990180;28;20295;-71
2022/04/28 03:44:17;;;;;;;16.33;3.53;;;8.10;99.90;;;;;;4971332;28;20058;-71
2022/04/28 03:46:43;;;;;;;11.05;2.88;;;7.90;99.90;;;;;;4988801;28;20051;-71
2022/04/28 03:49:08;;;;;;;22.50;3.70;;;7.90;99.90;;;;;;4988038;28;20046;-71
2022/04/28 03:51:34;;;;;;;16.98;4.10;;;7.90;99.90;;;;;;4990798;28;20127;-71
2022/04/28 03:54:00;;;;;;;18.40;3.70;;;7.80;99.90;;;;;;4987164;28;20058;-71
2022/04/28 03:56:31;;;;;;;21.20;3.47;;;7.70;99.90;;;;;;4988304;28;20366;-71
2022/04/28 03:58:58;;;;;;;15.63;3.30;;;7.70;99.90;;;;;;4956295;28;20050;-71
2022/04/28 04:01:24;;;;;;;19.60;3.65;;;7.60;99.90;;;;;;4987335;28;20151;-71
2022/04/28 04:03:50;;;;;;;14.63;2.88;;;7.60;99.90;;;;;;4987142;28;20124;-71
2022/04/28 04:06:15;;;;;;;10.07;2.92;;;7.70;99.90;;;;;;5006791;28;20054;-71
2022/04/28 04:08:41;;;;;;;17.73;3.15;;;7.60;99.90;;;;;;4991311;28;20060;-71
2022/04/28 04:11:08;;;;;;;14.23;3.72;;;7.70;99.90;;;;;;5006636;28;20045;-71
2022/04/28 04:13:33;;;;;;;24.98;3.17;;;7.80;99.90;;;;;;4997751;28;20133;-71
2022/04/28 04:15:59;;;;;;;11.25;2.88;;;7.80;99.90;;;;;;4987573;28;20509;-71
2022/04/28 04:18:25;;;;;;;13.35;2.60;;;7.80;99.90;;;;;;4987668;28;20591;-71
2022/04/28 04:20:51;;;;;;;11.18;2.60;;;7.80;99.90;;;;;;4988461;28;20054;-71
2022/04/28 04:23:17;;;;;;;16.80;2.38;;;7.80;99.90;;;;;;4990407;28;20527;-71
2022/04/28 04:25:43;;;;;;;20.50;2.70;;;7.80;99.90;;;;;;4989447;28;20046;-70
2022/04/28 04:28:09;;;;;;;15.35;2.63;;;7.80;99.90;;;;;;5005850;28;20057;-72
2022/04/28 04:33:21;;;;;;;19.77;2.72;;;7.90;99.90;;;;;;4987237;28;20389;-71
2022/04/28 04:35:47;;;;;;;18.23;2.78;;;7.90;99.90;;;;;;5005624;28;20072;-72
2022/04/28 04:38:12;;;;;;;20.77;3.65;;;7.90;99.90;;;;;;4990266;28;20484;-71
2022/04/28 04:40:38;;;;;;;18.08;2.65;;;8.00;99.90;;;;;;5006305;28;20106;-71
2022/04/28 04:43:05;;;;;;;22.45;4.03;;;7.90;99.90;;;;;;5006032;28;20058;-71
2022/04/28 04:45:31;;;;;;;11.40;2.42;;;8.00;99.90;;;;;;5003429;28;20527;-71
2022/04/28 04:47:57;;;;;;;11.05;2.70;;;8.00;99.90;;;;;;4972989;28;20041;-72
2022/04/28 04:50:23;;;;;;;10.93;2.78;;;7.90;99.90;;;;;;5005453;28;20056;-71
2022/04/28 04:52:48;;;;;;;14.93;2.38;;;7.90;99.90;;;;;;5005440;28;20569;-71
2022/04/28 04:55:14;;;;;;;14.05;3.20;;;7.90;99.90;;;;;;4981379;28;20100;-71
2022/04/28 04:57:40;;;;;;;21.27;2.60;;;8.00;99.90;;;;;;4985048;28;20058;-71
2022/04/28 05:00:07;;;;;;;13.13;2.20;;;8.10;99.90;;;;;;4988157;28;20090;-71
2022/04/28 05:02:33;;;;;;;15.43;2.70;;;8.10;99.90;;;;;;4968837;28;20042;-71
2022/04/28 05:04:58;;;;;;;17.35;3.63;;;8.20;99.90;;;;;;4987486;28;20038;-72
2022/04/28 05:07:30;;;;;;;14.63;2.53;;;8.20;99.90;;;;;;5004741;28;20116;-71
2022/04/28 05:09:55;;;;;;;16.00;2.55;;;8.30;99.90;;;;;;4998529;28;20045;-71
2022/04/28 05:12:21;;;;;;;18.00;2.85;;;8.40;99.90;;;;;;4999266;28;20046;-71
2022/04/28 05:14:47;;;;;;;11.90;2.30;;;8.50;99.90;;;;;;5004322;28;20126;-70
2022/04/28 05:17:13;;;;;;;19.65;3.10;;;8.50;99.90;;;;;;4970217;28;20042;-71
2022/04/28 05:19:38;;;;;;;13.43;2.88;;;8.60;99.90;;;;;;4997164;28;20080;-71
2022/04/28 05:22:04;;;;;;;11.07;3.38;;;8.70;99.90;;;;;;5003350;28;20054;-71
2022/04/28 05:24:30;;;;;;;13.85;2.42;;;8.60;99.90;;;;;;5003818;28;20046;-71
2022/04/28 05:26:55;;;;;;;17.02;2.70;;;8.70;99.90;;;;;;5005842;28;20393;-71
2022/04/28 05:29:21;;;;;;;16.55;2.42;;;8.60;99.90;;;;;;5004809;28;20064;-71
2022/04/28 05:31:47;;;;;;;11.85;2.70;;;8.60;99.90;;;;;;4985200;28;20382;-71
2022/04/28 05:34:12;;;;;;;14.90;2.50;;;8.60;99.90;;;;;;5005104;28;20057;-71
2022/04/28 05:36:39;;;;;;;12.70;2.15;;;8.50;99.90;;;;;;5003847;28;20046;-71
2022/04/28 05:39:05;;;;;;;12.38;2.28;;;8.40;99.90;;;;;;5009247;28;20045;-71
2022/04/28 05:41:33;;;;;;;10.60;2.00;;;8.50;99.90;;;;;;5007436;28;20046;-71
2022/04/28 05:46:48;;;;;;;12.68;2.00;;;8.40;99.90;;;;;;4981381;28;20104;-71
2022/04/28 05:49:13;;;;;;;9.35;1.90;;;8.40;99.90;;;;;;5010181;28;20552;-71
2022/04/28 05:51:40;;;;;;;8.85;2.30;;;8.50;99.90;;;;;;4990729;28;20078;-71
2022/04/28 05:54:06;;;;;;;18.60;2.92;;;8.40;99.90;;;;;;4976239;28;20053;-71
2022/04/28 05:56:32;;;;;;;13.10;2.03;;;8.50;99.90;;;;;;5008521;28;20054;-71
2022/04/28 05:58:57;;;;;;;9.98;2.08;;;8.60;99.90;;;;;;4976023;28;20104;-72
2022/04/28 06:01:25;;;;;;;11.52;1.67;;;8.60;99.90;;;;;;5007279;28;20467;-71
2022/04/28 06:03:50;;;;;;;11.18;1.95;;;8.70;99.90;;;;;;5009269;28;20057;-71
2022/04/28 06:06:16;;;;;;;15.48;1.92;;;8.60;99.90;;;;;;5008472;28;20046;-70
2022/04/28 06:08:42;;;;;;;8.95;2.10;;;8.80;99.90;;;;;;5008686;28;20057;-71
2022/04/28 06:11:07;;;;;;;11.20;1.90;;;8.90;99.90;;;;;;4991093;28;20531;-71
2022/04/28 06:13:33;;;;;;;12.10;2.10;;;9.10;99.90;;;;;;4989583;28;20049;-71
2022/04/28 06:15:59;;;;;;;9.98;1.80;;;9.10;99.90;;;;;;4972281;28;20046;-71
2022/04/28 06:18:26;;;;;;;9.50;1.80;;;9.00;99.90;;;;;;4988865;28;20042;-71
2022/04/28 06:20:51;;;;;;;11.73;1.58;;;9.00;99.90;;;;;;4988287;28;20050;-71
2022/04/28 06:23:17;;;;;;;11.70;2.30;;;8.90;99.90;;;;;;4989370;28;20101;-72
2022/04/28 06:25:43;;;;;;;16.38;1.90;;;8.90;99.90;;;;;;4988301;28;20082;-72
2022/04/28 06:28:12;;;;;;;12.82;1.95;;;8.90;99.90;;;;;;4985405;28;20057;-72
2022/04/28 06:30:37;;;;;;;18.23;2.30;;;8.90;99.90;;;;;;4986375;28;20059;-72
2022/04/28 06:33:04;;;;;;;8.98;1.50;;;9.10;99.90;;;;;;4998593;28;20038;-71
2022/04/28 06:35:33;;;;;;;11.25;1.92;;;9.30;99.90;;;;;;4986442;28;20240;-71
2022/04/28 06:37:59;;;;;;;7.25;2.03;;;9.40;99.90;;;;;;4999355;28;20511;-70
2022/04/28 06:40:25;;;;;;;14.40;2.63;;;9.40;99.90;;;;;;5005635;28;20050;-71
2022/04/28 06:42:52;;;;;;;17.95;2.20;;;9.30;99.90;;;;;;5006364;28;20042;-71
2022/04/28 06:45:18;;;;;;;11.65;2.03;;;9.20;99.90;;;;;;5005160;28;20465;-71
2022/04/28 06:47:44;;;;;;;18.15;2.25;;;9.20;99.90;;;;;;5003156;28;20088;-71
2022/04/28 06:50:10;;;;;;;12.35;1.90;;;9.10;99.90;;;;;;4988130;28;20061;-71
2022/04/28 06:52:39;;;;;;;14.68;1.80;;;9.10;99.90;;;;;;5004473;28;20295;-71
2022/04/28 06:55:07;;;;;;;8.98;1.83;;;9.30;99.90;;;;;;5004773;28;20147;-71
2022/04/28 06:57:33;;;;;;;9.93;1.73;;;9.60;99.90;;;;;;5003407;28;20115;-71
2022/04/28 06:59:59;;;;;;;10.13;2.08;;;9.60;99.90;;;;;;4988178;28;20041;-70
2022/04/28 07:02:24;;;;;;;9.57;1.65;;;9.60;99.90;;;;;;4990653;28;20132;-71
2022/04/28 07:04:51;;;;;;;10.68;2.65;;;9.60;99.90;;;;;;4984829;28;20453;-71
2022/04/28 07:07:16;;;;;;;9.85;1.85;;;9.60;99.90;;;;;;5002567;28;20046;-71
2022/04/28 07:09:42;;;;;;;10.98;1.92;;;9.80;99.90;;;;;;4986253;28;20036;-71
2022/04/28 07:12:10;;;;;;;11.88;2.03;;;9.70;99.90;;;;;;4987802;28;20049;-71
2022/04/28 07:14:35;;;;;;;12.32;2.10;;;9.70;99.90;;;;;;4995016;28;20078;-71
2022/04/28 07:17:01;;;;;;;15.10;2.28;;;9.70;99.90;;;;;;4983362;28;20536;-71
2022/04/28 07:19:27;;;;;;;12.65;2.10;;;9.70;99.90;;;;;;4988478;28;20050;-71
2022/04/28 07:21:53;;;;;;;11.77;2.33;;;9.80;99.90;;;;;;4971839;28;20046;-71
2022/04/28 07:24:19;;;;;;;17.55;2.42;;;9.80;99.90;;;;;;4998956;28;20061;-71
2022/04/28 07:26:44;;;;;;;14.93;2.47;;;9.80;99.90;;;;;;4989826;28;20057;-71
2022/04/28 07:29:10;;;;;;;15.40;2.28;;;9.80;99.90;;;;;;5003540;28;20135;-71
2022/04/28 07:31:36;;;;;;;15.27;2.13;;;9.80;99.90;;;;;;4972464;28;20060;-71
2022/04/28 07:34:02;;;;;;;12.20;2.30;;;9.80;98.90;;;;;;5005408;28;20057;-71
2022/04/28 07:36:28;;;;;;;13.05;2.00;;;9.80;99.00;;;;;;4989142;28;20960;-71
2022/04/28 07:38:55;;;;;;;12.18;2.10;;;9.90;96.10;;;;;;5005092;28;20492;-71
2022/04/28 07:41:21;;;;;;;11.07;2.33;;;10.30;95.10;;;;;;5004629;28;20037;-71
2022/04/28 07:43:47;;;;;;;17.88;2.55;;;10.70;92.80;;;;;;5005060;28;20050;-71
2022/04/28 07:46:12;;;;;;;10.80;1.73;;;10.90;90.00;;;;;;5005272;28;20049;-71
2022/04/28 07:48:38;;;;;;;7.38;1.48;;;10.70;83.10;;;;;;5006170;28;20050;-70
2022/04/28 07:51:04;;;;;;;14.27;2.17;;;10.20;89.30;;;;;;4971810;28;20586;-70
2022/04/28 07:53:32;;;;;;;14.38;1.75;;;9.90;89.50;;;;;;5006854;28;20061;-71
2022/04/28 07:56:11;;;;;;;15.52;2.35;;;9.70;92.10;;;;;;4989700;28;20046;-71
2022/04/28 07:58:41;;;;;;;15.30;2.30;;;9.70;94.00;;;;;;5005609;28;20060;-71
2022/04/28 08:01:07;;;;;;;10.07;2.10;;;9.70;97.60;;;;;;5000745;28;20050;-70
2022/04/28 08:03:33;;;;;;;12.93;2.60;;;10.10;99.00;;;;;;4969710;28;20076;-71
2022/04/28 08:05:59;;;;;;;7.53;2.38;;;10.50;93.30;;;;;;4986802;28;20369;-71
2022/04/28 08:08:25;;;;;;;15.90;3.53;;;10.50;92.80;;;;;;4969857;28;20046;-71
2022/04/28 08:10:51;;;;;;;14.45;2.60;;;10.60;94.00;;;;;;4986598;28;20050;-70
2022/04/28 08:13:17;;;;;;;10.88;2.38;;;10.80;93.20;;;;;;4988412;28;20053;-70
2022/04/28 08:15:42;;;;;;;12.35;2.38;;;11.00;90.20;;;;;;5007224;28;20599;-70
2022/04/28 08:18:08;;;;;;;14.13;2.63;;;11.00;91.70;;;;;;4989741;28;20046;-71
2022/04/28 08:20:35;;;;;;;10.63;2.58;;;10.80;90.00;;;;;;5005718;28;20054;-71
2022/04/28 08:23:01;;;;;;;11.55;2.70;;;10.60;90.60;;;;;;4987981;28;20054;-71
2022/04/28 08:25:27;;;;;;;9.82;1.80;;;10.40;91.60;;;;;;5005084;28;20615;-70
2022/04/28 08:27:53;;;;;;;11.15;2.67;;;10.40;93.80;;;;;;5005418;28;20069;-71
2022/04/28 08:30:19;;;;;;;7.63;2.42;;;10.60;94.10;;;;;;5004601;28;20109;-71
2022/04/28 08:32:44;;;;;;;8.98;2.10;;;10.60;93.00;;;;;;4987133;28;20073;-71
2022/04/28 08:35:10;;;;;;;11.23;2.00;;;10.70;92.70;;;;;;5004978;28;20053;-70
2022/04/28 08:37:39;;;;;;;8.40;2.72;;;10.80;85.70;;;;;;5005440;28;20045;-71
2022/04/28 08:40:06;;;;;;;12.65;2.67;;;10.80;84.50;;;;;;5005725;28;20377;-71
2022/04/28 08:42:36;;;;;;;8.65;1.90;;;11.00;88.00;;;;;;5004685;28;20409;-71
2022/04/28 08:45:02;;;;;;;12.98;2.60;;;10.90;93.80;;;;;;4986443;28;20082;-70
2022/04/28 08:47:28;;;;;;;17.95;2.30;;;11.00;89.60;;;;;;4969423;28;20089;-71
2022/04/28 08:49:53;;;;;;;22.90;3.30;;;11.00;89.40;;;;;;4937311;28;20090;-70
2022/04/28 08:52:19;;;;;;;11.07;1.80;;;10.80;88.20;;;;;;4985861;28;20054;-69
2022/04/28 08:54:46;;;;;;;15.02;2.42;;;10.70;92.00;;;;;;4985859;28;20514;-71
2022/04/28 08:57:13;;;;;;;11.52;2.40;;;10.70;93.60;;;;;;4970108;28;20413;-71
2022/04/28 08:59:40;;;;;;;12.32;2.17;;;10.60;93.60;;;;;;4997360;28;20368;-71
2022/04/28 09:02:07;;;;;;;16.02;2.70;;;10.70;92.90;;;;;;4989023;28;20377;-71
2022/04/28 09:04:33;;;;;;;10.80;2.40;;;10.90;94.40;;;;;;5003198;28;20042;-71
2022/04/28 09:06:59;;;;;;;11.23;2.58;;;11.20;93.00;;;;;;5004445;28;20400;-70
2022/04/28 09:09:28;;;;;;;26.55;2.85;;;11.50;88.20;;;;;;4986920;28;20088;-70
2022/04/28 09:11:59;;;;;;;11.43;2.45;;;11.40;86.30;;;;;;5003955;28;20041;-70
2022/04/28 09:14:25;;;;;;;14.88;2.78;;;11.40;82.50;;;;;;4996090;28;20046;-70
2022/04/28 09:16:57;;;;;;;21.92;2.85;;;11.20;82.00;;;;;;4986012;28;20377;-71
2022/04/28 09:19:26;;;;;;;14.55;2.70;;;11.00;83.60;;;;;;4987349;28;20050;-71
2022/04/28 09:21:57;;;;;;;13.07;2.25;;;10.90;86.80;;;;;;4984584;28;20046;-71
2022/04/28 09:24:24;;;;;;;21.63;2.97;;;10.90;91.80;;;;;;4990271;28;20144;-71
2022/04/28 09:26:54;;;;;;;13.15;3.00;;;10.90;91.30;;;;;;5004176;28;20056;-71
2022/04/28 09:29:21;;;;;;;12.30;2.97;;;10.80;92.10;;;;;;4988996;28;20046;-70
2022/04/28 09:31:49;;;;;;;15.48;3.17;;;10.80;91.40;;;;;;5004274;28;20081;-71
2022/04/28 09:34:17;;;;;;;14.82;3.20;;;11.00;94.70;;;;;;5003987;28;20056;-71
2022/04/28 09:36:44;;;;;;;15.13;2.40;;;11.10;90.90;;;;;;5005497;28;20050;-71
2022/04/28 09:42:29;;;;;;;10.38;2.17;;;11.20;90.50;;;;;;5003848;28;20554;-72
2022/04/28 09:44:51;;;;;;;17.05;2.45;;;11.10;90.20;;;;;;5003778;28;20057;-71
2022/04/28 09:47:22;;;;;;;11.02;2.22;;;11.30;85.10;;;;;;4984149;28;20389;-71
2022/04/28 09:49:52;;;;;;;16.33;2.88;;;11.20;86.50;;;;;;4987963;28;20501;-71
2022/04/28 09:52:31;;;;;;;13.35;2.55;;;11.30;90.40;;;;;;5003912;28;20125;-70
2022/04/28 09:55:03;;;;;;;15.23;2.92;;;11.40;92.10;;;;;;5003393;28;20049;-70
2022/04/28 09:57:29;;;;;;;9.02;2.13;;;11.60;87.60;;;;;;5004034;28;20054;-70
2022/04/28 09:59:57;;;;;;;15.05;2.30;;;11.70;83.90;;;;;;5004440;28;20049;-70
2022/04/28 10:02:26;;;;;;;18.30;2.58;;;11.60;83.10;;;;;;5001524;28;20058;-71
2022/04/28 10:04:54;;;;;;;13.05;2.22;;;11.40;87.30;;;;;;5005182;28;20125;-69
2022/04/28 10:07:20;;;;;;;13.45;2.58;;;11.20;91.10;;;;;;4991328;28;20713;-69
2022/04/28 10:09:48;;;;;;;10.68;2.13;;;11.10;90.40;;;;;;4988282;28;20109;-70
2022/04/28 10:12:26;;;;;;;14.30;2.20;;;11.00;90.40;;;;;;4999428;28;20058;-71
2022/04/28 10:14:56;;;;;;;12.75;2.67;;;11.00;87.50;;;;;;4987332;28;20088;-71
2022/04/28 10:17:44;;;;;;;8.60;2.10;;;11.10;91.70;;;;;;4986928;28;20069;-70
2022/04/28 10:20:41;;;;;;;13.48;2.13;;;11.20;88.20;;;;;;5003701;28;20049;-71
2022/04/28 10:23:10;;;;;;;12.50;2.45;;;11.30;84.50;;;;;;4996973;28;20080;-71
2022/04/28 10:34:14;;;;;;;14.27;2.28;;;11.80;87.40;;;;;;5005759;28;20041;-71
2022/04/28 10:36:56;;;;;;;11.38;2.05;;;12.00;87.40;;;;;;5008029;28;20046;-71
2022/04/28 10:39:42;;;;;;;13.57;2.67;;;12.10;76.90;;;;;;5007324;28;20064;-71
2022/04/28 10:42:31;;;;;;;12.55;2.03;;;12.00;73.50;;;;;;5007574;28;20101;-71
2022/04/28 10:44:58;;;;;;;13.35;2.63;;;11.90;76.80;;;;;;4977778;28;20193;-70
2022/04/28 10:47:34;;;;;;;19.73;2.88;;;12.00;78.40;;;;;;4990340;28;20046;-71
2022/04/28 10:50:01;;;;;;;13.25;2.10;;;12.10;67.80;;;;;;5004952;28;20049;-71
2022/04/28 10:52:27;;;;;;;13.10;2.33;;;12.20;81.70;;;;;;4990583;28;20582;-71
2022/04/28 10:54:58;;;;;;;15.90;2.22;;;12.00;75.10;;;;;;5007030;28;20042;-71
2022/04/28 10:57:30;;;;;;;14.60;2.38;;;11.70;75.50;;;;;;5007108;28;20096;-70
2022/04/28 10:59:56;;;;;;;9.77;1.58;;;11.80;72.20;;;;;;5008512;28;20073;-70
2022/04/28 11:02:23;;;;;;;8.02;1.95;;;11.80;74.00;;;;;;5002964;28;20528;-71
2022/04/28 11:05:01;;;;;;;11.20;2.05;;;11.80;75.30;;;;;;5005606;28;20046;-70
2022/04/28 11:07:29;;;;;;;10.75;1.75;;;11.90;77.10;;;;;;4990107;28;20041;-71
2022/04/28 11:10:00;;;;;;;10.60;2.35;;;12.00;84.40;;;;;;4995886;28;20050;-71
2022/04/28 11:12:34;;;;;;;20.88;2.92;;;11.90;77.40;;;;;;4987944;28;20054;-71
2022/04/28 11:15:06;;;;;;;13.40;2.05;;;12.10;82.00;;;;;;4971066;28;20050;-70
2022/04/28 11:17:36;;;;;;;13.40;2.28;;;12.00;80.10;;;;;;4971115;28;20565;-70
2022/04/28 11:20:10;;;;;;;13.45;2.03;;;11.90;75.80;;;;;;4971030;28;20054;-71
2022/04/28 11:22:36;;;;;;;13.23;2.63;;;11.90;72.60;;;;;;4970521;28;20050;-71
2022/04/28 11:25:10;;;;;;;18.10;2.47;;;11.90;75.00;;;;;;4987135;28;20062;-70
2022/04/28 11:27:36;;;;;;;14.35;2.70;;;11.90;77.40;;;;;;4987868;28;20148;-70
2022/04/28 11:30:03;;;;;;;10.07;1.90;;;11.70;74.40;;;;;;4986957;28;20101;-70
2022/04/28 11:32:28;;;;;;;11.10;1.70;;;11.70;76.30;;;;;;4998271;28;20068;-70
2022/04/28 11:34:57;;;;;;;17.17;2.95;;;11.80;80.30;;;;;;5006896;28;20042;-71
2022/04/28 11:37:28;;;;;;;10.57;2.13;;;11.80;79.90;;;;;;4994498;28;20050;-71
2022/04/28 11:39:57;;;;;;;18.40;2.22;;;11.70;74.90;;;;;;4992976;28;20148;-70
2022/04/28 11:42:25;;;;;;;10.30;1.77;;;11.50;78.30;;;;;;5007051;28;20147;-71
2022/04/28 11:44:59;;;;;;;10.35;2.30;;;11.40;79.80;;;;;;5006253;28;20089;-69
2022/04/28 11:47:26;;;;;;;16.83;2.50;;;11.50;87.80;;;;;;5005707;28;20053;-71
2022/04/28 11:50:03;;;;;;;12.45;2.72;;;11.70;78.50;;;;;;4987378;28;20046;-69
2022/04/28 11:52:34;;;;;;;13.63;2.10;;;11.90;72.70;;;;;;5005577;28;20038;-71
2022/04/28 11:55:05;;;;;;;17.00;2.20;;;12.00;79.20;;;;;;4989627;28;20042;-70
2022/04/28 11:57:32;;;;;;;7.35;1.40;;;12.10;72.60;;;;;;5003596;28;20100;-70
2022/04/28 11:59:59;;;;;;;13.85;2.40;;;12.10;66.00;;;;;;5005795;28;20077;-71
2022/04/28 12:02:35;;;;;;;8.18;2.10;;;12.20;77.70;;;;;;5003230;28;20547;-70
2022/04/28 12:05:15;;;;;;;16.70;2.78;;;12.30;83.60;;;;;;5006608;28;20045;-71
2022/04/28 12:07:50;;;;;;;6.28;1.83;;;12.20;66.20;;;;;;5004161;28;20057;-70
2022/04/28 12:16:16;;;;;;;8.48;1.80;;;12.00;83.90;;;;;;5005069;28;20042;-69
2022/04/28 12:21:36;;;;;;;15.73;2.28;;;12.00;84.50;;;;;;5003004;28;20050;-70
2022/04/28 12:24:11;;;;;;;8.63;1.70;;;12.30;79.90;;;;;;4973960;28;20476;-70
2022/04/28 12:26:43;;;;;;;13.10;2.25;;;12.30;78.30;;;;;;4985619;28;20125;-69
2022/04/28 12:29:13;;;;;;;10.85;1.98;;;12.20;63.50;;;;;;4998095;28;20046;-71
2022/04/28 12:31:40;;;;;;;15.52;2.58;;;12.10;70.50;;;;;;4986212;28;20045;-70
2022/04/28 12:34:10;;;;;;;10.00;2.15;;;12.00;69.20;;;;;;4993813;28;20607;-70
2022/04/28 12:36:44;;;;;;;15.00;2.45;;;12.30;82.20;;;;;;4987793;28;20091;-70
2022/04/28 12:39:11;;;;;;;11.35;2.42;;;12.30;64.60;;;;;;4985359;28;20042;-70
2022/04/28 12:41:42;;;;;;;7.93;1.92;;;12.20;68.80;;;;;;5003827;28;20148;-70
2022/04/28 12:44:08;;;;;;;7.18;2.10;;;11.80;66.10;;;;;;5004314;28;20038;-70
2022/04/28 12:46:36;;;;;;;10.43;1.92;;;11.60;80.00;;;;;;5003935;28;20041;-71
2022/04/28 12:49:14;;;;;;;14.45;2.35;;;11.80;83.10;;;;;;5003882;28;20042;-70
2022/04/28 12:51:48;;;;;;;12.32;1.90;;;11.90;81.30;;;;;;4988600;28;20049;-70
2022/04/28 12:54:15;;;;;;;10.20;2.38;;;12.10;80.60;;;;;;5005032;28;20611;-71
2022/04/28 12:56:44;;;;;;;14.38;2.78;;;12.20;72.10;;;;;;5005745;28;20497;-70
2022/04/28 12:59:13;;;;;;;13.60;1.98;;;12.20;71.50;;;;;;4988783;28;20072;-71
2022/04/28 13:01:40;;;;;;;12.30;1.92;;;11.90;62.50;;;;;;5004098;28;20065;-70
2022/04/28 13:04:10;;;;;;;11.65;2.00;;;11.80;76.90;;;;;;5005462;28;20124;-70
2022/04/28 13:06:43;;;;;;;11.77;1.95;;;11.80;74.00;;;;;;5005079;28;20060;-71
2022/04/28 13:09:09;;;;;;;11.85;2.03;;;11.70;77.50;;;;;;5005474;28;20508;-71
2022/04/28 13:11:40;;;;;;;12.38;2.47;;;11.80;69.20;;;;;;4995843;28;20051;-70
2022/04/28 13:14:09;;;;;;;12.02;1.83;;;11.70;76.10;;;;;;5000414;28;20128;-71
2022/04/28 13:16:35;;;;;;;13.60;2.25;;;11.60;73.60;;;;;;5003841;28;20511;-71
2022/04/28 13:19:04;;;;;;;8.10;1.50;;;11.50;73.70;;;;;;5002716;28;20100;-71
2022/04/28 13:21:31;;;;;;;13.10;1.63;;;11.30;81.40;;;;;;5000342;28;20037;-71
2022/04/28 13:24:00;;;;;;;8.50;2.20;;;11.50;81.20;;;;;;4999995;28;20053;-71
2022/04/28 13:26:28;;;;;;;12.80;2.28;;;11.60;79.70;;;;;;5001994;28;20050;-71
2022/04/28 13:28:55;;;;;;;9.10;2.05;;;11.50;84.20;;;;;;5001627;28;20439;-71
2022/04/28 13:31:22;;;;;;;11.50;2.28;;;11.50;85.50;;;;;;4998431;28;20230;-71
2022/04/28 13:33:49;;;;;;;10.23;2.15;;;11.70;74.30;;;;;;5000843;28;20046;-71
2022/04/28 13:36:16;;;;;;;13.10;1.90;;;11.60;85.60;;;;;;5001325;28;20081;-70